sensor_id;sensor_type;location;lat;lon;timestamp;P1;durP1;ratioP1;P2;durP2;ratioP2
43933;SDS011;59081;42.706;23.306;2023-09-18T00:00:08;25.95;;;17.98;;
43933;SDS011;59081;42.706;23.306;2023-09-18T00:05:11;26.80;;;18.75;;
43933;SDS011;59081;42.706;23.306;2023-09-18T00:10:30;24.02;;;19.83;;
43933;SDS011;59081;42.706;23.306;2023-09-18T00:15:30;26.95;;;20.00;;
43933;SDS011;59081;42.706;23.306;2023-09-18T00:20:31;26.23;;;19.55;;
43933;SDS011;59081;42.706;23.306;2023-09-18T00:25:32;26.90;;;19.75;;
43933;SDS011;59081;42.706;23.306;2023-09-18T00:30:32;25.08;;;20.02;;
43933;SDS011;59081;42.706;23.306;2023-09-18T00:35:33;23.50;;;19.98;;
43933;SDS011;59081;42.706;23.306;2023-09-18T00:40:33;27.27;;;22.80;;
43933;SDS011;59081;42.706;23.306;2023-09-18T00:45:34;24.92;;;19.83;;
43933;SDS011;59081;42.706;23.306;2023-09-18T00:50:38;30.35;;;21.23;;
43933;SDS011;59081;42.706;23.306;2023-09-18T00:55:39;22.57;;;18.47;;
43933;SDS011;59081;42.706;23.306;2023-09-18T01:00:40;20.20;;;17.33;;
43933;SDS011;59081;42.706;23.306;2023-09-18T01:05:41;20.95;;;15.20;;
43933;SDS011;59081;42.706;23.306;2023-09-18T01:10:47;23.33;;;12.25;;
43933;SDS011;59081;42.706;23.306;2023-09-18T01:15:58;22.90;;;13.85;;
43933;SDS011;59081;42.706;23.306;2023-09-18T01:21:22;17.85;;;13.75;;
43933;SDS011;59081;42.706;23.306;2023-09-18T01:26:23;16.02;;;13.90;;
43933;SDS011;59081;42.706;23.306;2023-09-18T01:31:23;16.52;;;11.88;;
43933;SDS011;59081;42.706;23.306;2023-09-18T01:36:26;17.00;;;13.35;;
43933;SDS011;59081;42.706;23.306;2023-09-18T01:41:27;18.63;;;12.07;;
43933;SDS011;59081;42.706;23.306;2023-09-18T01:46:28;17.73;;;11.85;;
43933;SDS011;59081;42.706;23.306;2023-09-18T01:51:28;17.48;;;12.00;;
43933;SDS011;59081;42.706;23.306;2023-09-18T01:56:29;15.43;;;11.93;;
43933;SDS011;59081;42.706;23.306;2023-09-18T02:01:29;16.25;;;12.27;;
43933;SDS011;59081;42.706;23.306;2023-09-18T02:06:30;17.92;;;12.18;;
43933;SDS011;59081;42.706;23.306;2023-09-18T02:11:31;18.67;;;14.68;;
43933;SDS011;59081;42.706;23.306;2023-09-18T02:16:49;20.83;;;15.52;;
43933;SDS011;59081;42.706;23.306;2023-09-18T02:21:51;16.95;;;13.32;;
43933;SDS011;59081;42.706;23.306;2023-09-18T02:26:51;22.23;;;16.20;;
43933;SDS011;59081;42.706;23.306;2023-09-18T02:31:51;24.17;;;15.80;;
43933;SDS011;59081;42.706;23.306;2023-09-18T02:36:52;23.60;;;14.07;;
43933;SDS011;59081;42.706;23.306;2023-09-18T02:41:52;15.02;;;10.48;;
43933;SDS011;59081;42.706;23.306;2023-09-18T02:46:53;16.55;;;13.57;;
43933;SDS011;59081;42.706;23.306;2023-09-18T02:51:53;14.77;;;11.63;;
43933;SDS011;59081;42.706;23.306;2023-09-18T02:56:54;20.08;;;10.82;;
43933;SDS011;59081;42.706;23.306;2023-09-18T03:01:54;15.35;;;10.18;;
43933;SDS011;59081;42.706;23.306;2023-09-18T03:06:54;15.55;;;10.80;;
43933;SDS011;59081;42.706;23.306;2023-09-18T03:11:55;15.25;;;10.32;;
43933;SDS011;59081;42.706;23.306;2023-09-18T03:16:55;21.83;;;9.60;;
43933;SDS011;59081;42.706;23.306;2023-09-18T03:21:55;19.27;;;11.77;;
43933;SDS011;59081;42.706;23.306;2023-09-18T03:26:59;14.65;;;12.13;;
43933;SDS011;59081;42.706;23.306;2023-09-18T03:31:59;16.63;;;12.48;;
43933;SDS011;59081;42.706;23.306;2023-09-18T03:37:00;17.38;;;12.80;;
43933;SDS011;59081;42.706;23.306;2023-09-18T03:42:00;17.83;;;12.63;;
43933;SDS011;59081;42.706;23.306;2023-09-18T03:47:01;17.00;;;13.75;;
43933;SDS011;59081;42.706;23.306;2023-09-18T03:52:01;21.50;;;16.75;;
43933;SDS011;59081;42.706;23.306;2023-09-18T03:57:02;27.45;;;16.98;;
43933;SDS011;59081;42.706;23.306;2023-09-18T04:02:03;23.95;;;16.75;;
43933;SDS011;59081;42.706;23.306;2023-09-18T04:07:07;22.75;;;16.38;;
43933;SDS011;59081;42.706;23.306;2023-09-18T04:12:08;23.30;;;17.85;;
43933;SDS011;59081;42.706;23.306;2023-09-18T04:17:09;29.00;;;16.27;;
43933;SDS011;59081;42.706;23.306;2023-09-18T04:22:10;24.65;;;15.88;;
43933;SDS011;59081;42.706;23.306;2023-09-18T04:27:10;24.75;;;15.90;;
43933;SDS011;59081;42.706;23.306;2023-09-18T04:32:10;33.45;;;21.13;;
43933;SDS011;59081;42.706;23.306;2023-09-18T04:37:11;21.90;;;14.57;;
43933;SDS011;59081;42.706;23.306;2023-09-18T04:42:11;21.25;;;15.10;;
43933;SDS011;59081;42.706;23.306;2023-09-18T04:47:12;22.90;;;14.82;;
43933;SDS011;59081;42.706;23.306;2023-09-18T04:52:12;22.20;;;15.05;;
43933;SDS011;59081;42.706;23.306;2023-09-18T04:57:12;28.83;;;16.25;;
43933;SDS011;59081;42.706;23.306;2023-09-18T05:02:13;24.85;;;14.48;;
43933;SDS011;59081;42.706;23.306;2023-09-18T05:07:13;24.73;;;15.98;;
43933;SDS011;59081;42.706;23.306;2023-09-18T05:12:14;28.15;;;16.90;;
43933;SDS011;59081;42.706;23.306;2023-09-18T05:17:16;21.63;;;16.33;;
43933;SDS011;59081;42.706;23.306;2023-09-18T05:22:16;23.95;;;14.35;;
43933;SDS011;59081;42.706;23.306;2023-09-18T05:27:18;20.02;;;14.40;;
43933;SDS011;59081;42.706;23.306;2023-09-18T05:32:18;23.75;;;15.80;;
43933;SDS011;59081;42.706;23.306;2023-09-18T05:37:18;23.23;;;14.35;;
43933;SDS011;59081;42.706;23.306;2023-09-18T05:42:19;25.38;;;14.80;;
43933;SDS011;59081;42.706;23.306;2023-09-18T05:47:19;24.13;;;15.15;;
43933;SDS011;59081;42.706;23.306;2023-09-18T05:52:20;20.58;;;15.40;;
43933;SDS011;59081;42.706;23.306;2023-09-18T05:57:23;18.85;;;13.60;;
43933;SDS011;59081;42.706;23.306;2023-09-18T06:02:24;23.98;;;16.27;;
43933;SDS011;59081;42.706;23.306;2023-09-18T06:07:27;23.70;;;14.38;;
43933;SDS011;59081;42.706;23.306;2023-09-18T06:12:28;22.15;;;14.07;;
43933;SDS011;59081;42.706;23.306;2023-09-18T06:17:30;22.52;;;14.10;;
43933;SDS011;59081;42.706;23.306;2023-09-18T06:22:30;22.67;;;16.10;;
43933;SDS011;59081;42.706;23.306;2023-09-18T06:27:31;18.75;;;14.18;;
43933;SDS011;59081;42.706;23.306;2023-09-18T06:32:32;26.13;;;12.83;;
43933;SDS011;59081;42.706;23.306;2023-09-18T06:37:33;19.58;;;12.48;;
43933;SDS011;59081;42.706;23.306;2023-09-18T06:42:33;17.17;;;11.68;;
43933;SDS011;59081;42.706;23.306;2023-09-18T06:47:34;19.23;;;13.70;;
43933;SDS011;59081;42.706;23.306;2023-09-18T06:52:34;22.95;;;14.57;;
43933;SDS011;59081;42.706;23.306;2023-09-18T07:07:45;17.50;;;12.60;;
43933;SDS011;59081;42.706;23.306;2023-09-18T07:12:46;23.52;;;14.80;;
43933;SDS011;59081;42.706;23.306;2023-09-18T07:17:46;18.40;;;12.68;;
43933;SDS011;59081;42.706;23.306;2023-09-18T07:22:48;20.05;;;14.30;;
43933;SDS011;59081;42.706;23.306;2023-09-18T07:27:49;18.67;;;13.48;;
43933;SDS011;59081;42.706;23.306;2023-09-18T07:32:49;17.00;;;12.30;;
43933;SDS011;59081;42.706;23.306;2023-09-18T07:37:49;21.10;;;14.05;;
43933;SDS011;59081;42.706;23.306;2023-09-18T07:42:50;26.65;;;16.30;;
43933;SDS011;59081;42.706;23.306;2023-09-18T07:47:50;20.48;;;12.10;;
43933;SDS011;59081;42.706;23.306;2023-09-18T07:52:51;19.67;;;13.70;;
43933;SDS011;59081;42.706;23.306;2023-09-18T07:57:52;16.38;;;12.43;;
43933;SDS011;59081;42.706;23.306;2023-09-18T08:02:54;16.45;;;11.85;;
43933;SDS011;59081;42.706;23.306;2023-09-18T08:08:01;17.35;;;13.95;;
43933;SDS011;59081;42.706;23.306;2023-09-18T08:13:07;20.58;;;12.77;;
43933;SDS011;59081;42.706;23.306;2023-09-18T08:18:08;18.70;;;13.00;;
43933;SDS011;59081;42.706;23.306;2023-09-18T08:23:09;16.70;;;11.87;;
43933;SDS011;59081;42.706;23.306;2023-09-18T08:28:10;14.10;;;11.45;;
43933;SDS011;59081;42.706;23.306;2023-09-18T08:54:19;15.60;;;9.45;;
43933;SDS011;59081;42.706;23.306;2023-09-18T08:59:21;13.20;;;10.05;;
43933;SDS011;59081;42.706;23.306;2023-09-18T09:04:22;13.23;;;9.57;;
43933;SDS011;59081;42.706;23.306;2023-09-18T09:09:22;16.77;;;10.90;;
43933;SDS011;59081;42.706;23.306;2023-09-18T09:14:23;16.90;;;10.20;;
43933;SDS011;59081;42.706;23.306;2023-09-18T09:19:31;11.82;;;9.80;;
43933;SDS011;59081;42.706;23.306;2023-09-18T09:24:39;15.35;;;10.23;;
43933;SDS011;59081;42.706;23.306;2023-09-18T09:29:42;11.00;;;8.15;;
43933;SDS011;59081;42.706;23.306;2023-09-18T09:34:58;12.50;;;7.80;;
43933;SDS011;59081;42.706;23.306;2023-09-18T09:40:03;10.88;;;7.50;;
43933;SDS011;59081;42.706;23.306;2023-09-18T09:45:12;13.15;;;8.23;;
43933;SDS011;59081;42.706;23.306;2023-09-18T09:50:15;21.63;;;9.52;;
43933;SDS011;59081;42.706;23.306;2023-09-18T09:55:22;13.43;;;8.23;;
43933;SDS011;59081;42.706;23.306;2023-09-18T10:00:35;10.43;;;8.18;;
43933;SDS011;59081;42.706;23.306;2023-09-18T10:05:50;13.15;;;8.25;;
43933;SDS011;59081;42.706;23.306;2023-09-18T10:10:54;12.77;;;7.22;;
43933;SDS011;59081;42.706;23.306;2023-09-18T10:15:59;9.70;;;6.43;;
43933;SDS011;59081;42.706;23.306;2023-09-18T10:21:14;8.35;;;6.05;;
43933;SDS011;59081;42.706;23.306;2023-09-18T10:26:22;11.45;;;8.32;;
43933;SDS011;59081;42.706;23.306;2023-09-18T10:31:28;8.25;;;6.80;;
43933;SDS011;59081;42.706;23.306;2023-09-18T10:36:29;8.00;;;5.85;;
43933;SDS011;59081;42.706;23.306;2023-09-18T10:46:30;9.00;;;5.82;;
43933;SDS011;59081;42.706;23.306;2023-09-18T10:56:34;8.13;;;6.22;;
43933;SDS011;59081;42.706;23.306;2023-09-18T11:01:35;7.35;;;4.82;;
43933;SDS011;59081;42.706;23.306;2023-09-18T11:17:03;9.25;;;5.10;;
43933;SDS011;59081;42.706;23.306;2023-09-18T11:22:07;10.87;;;5.00;;
43933;SDS011;59081;42.706;23.306;2023-09-18T11:27:12;5.15;;;4.40;;
43933;SDS011;59081;42.706;23.306;2023-09-18T11:32:13;6.28;;;4.03;;
43933;SDS011;59081;42.706;23.306;2023-09-18T11:37:19;7.47;;;4.45;;
43933;SDS011;59081;42.706;23.306;2023-09-18T11:42:21;8.23;;;5.00;;
43933;SDS011;59081;42.706;23.306;2023-09-18T11:47:26;6.57;;;3.88;;
43933;SDS011;59081;42.706;23.306;2023-09-18T11:52:29;7.43;;;4.03;;
43933;SDS011;59081;42.706;23.306;2023-09-18T11:57:35;5.85;;;4.68;;
43933;SDS011;59081;42.706;23.306;2023-09-18T12:02:36;7.82;;;3.80;;
43933;SDS011;59081;42.706;23.306;2023-09-18T12:07:38;7.53;;;4.00;;
43933;SDS011;59081;42.706;23.306;2023-09-18T12:17:54;6.50;;;4.38;;
43933;SDS011;59081;42.706;23.306;2023-09-18T12:22:55;6.82;;;4.30;;
43933;SDS011;59081;42.706;23.306;2023-09-18T12:27:56;9.60;;;3.73;;
43933;SDS011;59081;42.706;23.306;2023-09-18T12:32:57;7.78;;;4.60;;
43933;SDS011;59081;42.706;23.306;2023-09-18T12:38:00;9.15;;;4.45;;
43933;SDS011;59081;42.706;23.306;2023-09-18T12:43:00;6.30;;;4.50;;
43933;SDS011;59081;42.706;23.306;2023-09-18T12:48:03;6.47;;;4.35;;
43933;SDS011;59081;42.706;23.306;2023-09-18T12:53:08;7.57;;;3.90;;
43933;SDS011;59081;42.706;23.306;2023-09-18T12:58:12;7.53;;;4.30;;
43933;SDS011;59081;42.706;23.306;2023-09-18T13:03:13;7.35;;;3.90;;
43933;SDS011;59081;42.706;23.306;2023-09-18T13:08:14;8.53;;;5.37;;
43933;SDS011;59081;42.706;23.306;2023-09-18T13:13:18;7.13;;;4.90;;
43933;SDS011;59081;42.706;23.306;2023-09-18T13:18:22;8.57;;;4.28;;
43933;SDS011;59081;42.706;23.306;2023-09-18T13:23:30;6.30;;;4.53;;
43933;SDS011;59081;42.706;23.306;2023-09-18T13:28:31;7.90;;;4.55;;
43933;SDS011;59081;42.706;23.306;2023-09-18T13:33:39;6.20;;;4.35;;
43933;SDS011;59081;42.706;23.306;2023-09-18T13:38:40;5.95;;;4.10;;
43933;SDS011;59081;42.706;23.306;2023-09-18T13:43:41;6.35;;;4.03;;
43933;SDS011;59081;42.706;23.306;2023-09-18T13:48:42;9.68;;;4.53;;
43933;SDS011;59081;42.706;23.306;2023-09-18T13:53:42;5.87;;;4.20;;
43933;SDS011;59081;42.706;23.306;2023-09-18T13:58:43;6.45;;;4.05;;
43933;SDS011;59081;42.706;23.306;2023-09-18T14:03:43;6.57;;;3.63;;
43933;SDS011;59081;42.706;23.306;2023-09-18T14:08:45;4.75;;;3.42;;
43933;SDS011;59081;42.706;23.306;2023-09-18T14:13:45;4.68;;;3.65;;
43933;SDS011;59081;42.706;23.306;2023-09-18T14:18:47;7.70;;;3.78;;
43933;SDS011;59081;42.706;23.306;2023-09-18T14:23:48;5.25;;;4.03;;
43933;SDS011;59081;42.706;23.306;2023-09-18T14:28:49;14.98;;;4.10;;
43933;SDS011;59081;42.706;23.306;2023-09-18T14:33:49;8.00;;;4.70;;
43933;SDS011;59081;42.706;23.306;2023-09-18T14:38:49;12.50;;;4.00;;
43933;SDS011;59081;42.706;23.306;2023-09-18T14:43:50;8.40;;;4.43;;
43933;SDS011;59081;42.706;23.306;2023-09-18T14:53:51;8.63;;;4.80;;
43933;SDS011;59081;42.706;23.306;2023-09-18T14:58:53;9.43;;;4.80;;
43933;SDS011;59081;42.706;23.306;2023-09-18T15:03:55;8.10;;;5.18;;
43933;SDS011;59081;42.706;23.306;2023-09-18T15:08:55;6.67;;;5.00;;
43933;SDS011;59081;42.706;23.306;2023-09-18T15:13:55;6.63;;;4.87;;
43933;SDS011;59081;42.706;23.306;2023-09-18T15:18:56;6.27;;;4.47;;
43933;SDS011;59081;42.706;23.306;2023-09-18T15:24:02;7.82;;;4.65;;
43933;SDS011;59081;42.706;23.306;2023-09-18T15:29:03;7.68;;;6.25;;
43933;SDS011;59081;42.706;23.306;2023-09-18T15:34:04;11.50;;;5.43;;
43933;SDS011;59081;42.706;23.306;2023-09-18T15:39:04;7.33;;;4.37;;
43933;SDS011;59081;42.706;23.306;2023-09-18T15:44:05;7.80;;;4.70;;
43933;SDS011;59081;42.706;23.306;2023-09-18T15:49:06;6.47;;;4.65;;
43933;SDS011;59081;42.706;23.306;2023-09-18T15:54:07;7.77;;;4.47;;
43933;SDS011;59081;42.706;23.306;2023-09-18T15:59:08;10.77;;;7.38;;
43933;SDS011;59081;42.706;23.306;2023-09-18T16:04:08;9.90;;;6.07;;
43933;SDS011;59081;42.706;23.306;2023-09-18T16:09:09;9.83;;;5.17;;
43933;SDS011;59081;42.706;23.306;2023-09-18T16:14:10;6.83;;;4.33;;
43933;SDS011;59081;42.706;23.306;2023-09-18T16:19:10;14.70;;;4.30;;
43933;SDS011;59081;42.706;23.306;2023-09-18T16:24:11;9.93;;;5.10;;
43933;SDS011;59081;42.706;23.306;2023-09-18T16:29:11;11.93;;;4.87;;
43933;SDS011;59081;42.706;23.306;2023-09-18T16:34:12;9.40;;;4.47;;
43933;SDS011;59081;42.706;23.306;2023-09-18T16:39:12;9.90;;;5.23;;
43933;SDS011;59081;42.706;23.306;2023-09-18T16:44:16;9.20;;;5.60;;
43933;SDS011;59081;42.706;23.306;2023-09-18T16:49:17;8.40;;;6.30;;
43933;SDS011;59081;42.706;23.306;2023-09-18T16:54:22;7.70;;;5.45;;
43933;SDS011;59081;42.706;23.306;2023-09-18T16:59:22;9.97;;;5.73;;
43933;SDS011;59081;42.706;23.306;2023-09-18T17:04:27;12.48;;;5.57;;
43933;SDS011;59081;42.706;23.306;2023-09-18T17:09:27;14.07;;;5.93;;
43933;SDS011;59081;42.706;23.306;2023-09-18T17:14:28;9.83;;;5.03;;
43933;SDS011;59081;42.706;23.306;2023-09-18T17:19:29;8.25;;;5.75;;
43933;SDS011;59081;42.706;23.306;2023-09-18T17:24:30;8.07;;;5.73;;
43933;SDS011;59081;42.706;23.306;2023-09-18T17:29:34;8.40;;;5.30;;
43933;SDS011;59081;42.706;23.306;2023-09-18T17:34:35;9.33;;;6.30;;
43933;SDS011;59081;42.706;23.306;2023-09-18T17:39:35;9.63;;;5.97;;
43933;SDS011;59081;42.706;23.306;2023-09-18T17:44:36;12.52;;;5.82;;
43933;SDS011;59081;42.706;23.306;2023-09-18T17:49:37;10.40;;;6.18;;
43933;SDS011;59081;42.706;23.306;2023-09-18T17:54:38;7.70;;;5.72;;
43933;SDS011;59081;42.706;23.306;2023-09-18T17:59:38;12.20;;;5.40;;
43933;SDS011;59081;42.706;23.306;2023-09-18T18:04:39;9.23;;;6.68;;
43933;SDS011;59081;42.706;23.306;2023-09-18T18:09:39;7.10;;;5.85;;
43933;SDS011;59081;42.706;23.306;2023-09-18T18:14:40;7.97;;;5.88;;
43933;SDS011;59081;42.706;23.306;2023-09-18T18:19:40;10.18;;;5.50;;
43933;SDS011;59081;42.706;23.306;2023-09-18T18:24:41;7.97;;;5.82;;
43933;SDS011;59081;42.706;23.306;2023-09-18T18:29:41;9.98;;;6.78;;
43933;SDS011;59081;42.706;23.306;2023-09-18T18:34:42;10.65;;;6.13;;
43933;SDS011;59081;42.706;23.306;2023-09-18T18:39:45;9.52;;;5.70;;
43933;SDS011;59081;42.706;23.306;2023-09-18T18:44:45;12.38;;;6.60;;
43933;SDS011;59081;42.706;23.306;2023-09-18T18:49:49;6.63;;;5.70;;
43933;SDS011;59081;42.706;23.306;2023-09-18T18:54:49;10.63;;;5.88;;
43933;SDS011;59081;42.706;23.306;2023-09-18T18:59:50;8.40;;;6.18;;
43933;SDS011;59081;42.706;23.306;2023-09-18T19:04:50;10.57;;;7.25;;
43933;SDS011;59081;42.706;23.306;2023-09-18T19:09:51;11.52;;;6.55;;
43933;SDS011;59081;42.706;23.306;2023-09-18T19:14:52;7.50;;;5.75;;
43933;SDS011;59081;42.706;23.306;2023-09-18T19:19:55;11.90;;;6.97;;
43933;SDS011;59081;42.706;23.306;2023-09-18T19:24:55;9.20;;;5.88;;
43933;SDS011;59081;42.706;23.306;2023-09-18T19:29:56;10.32;;;5.75;;
43933;SDS011;59081;42.706;23.306;2023-09-18T19:34:57;13.57;;;6.53;;
43933;SDS011;59081;42.706;23.306;2023-09-18T19:39:58;9.45;;;5.07;;
43933;SDS011;59081;42.706;23.306;2023-09-18T19:44:58;11.70;;;5.53;;
43933;SDS011;59081;42.706;23.306;2023-09-18T19:49:59;7.03;;;4.28;;
43933;SDS011;59081;42.706;23.306;2023-09-18T19:54:59;8.80;;;4.70;;
43933;SDS011;59081;42.706;23.306;2023-09-18T20:00:00;9.85;;;5.13;;
43933;SDS011;59081;42.706;23.306;2023-09-18T20:05:03;5.43;;;4.00;;
43933;SDS011;59081;42.706;23.306;2023-09-18T20:10:05;7.87;;;4.97;;
43933;SDS011;59081;42.706;23.306;2023-09-18T20:15:06;10.25;;;5.60;;
43933;SDS011;59081;42.706;23.306;2023-09-18T20:20:07;7.85;;;4.75;;
43933;SDS011;59081;42.706;23.306;2023-09-18T20:25:09;8.43;;;4.20;;
43933;SDS011;59081;42.706;23.306;2023-09-18T20:30:12;10.52;;;4.93;;
43933;SDS011;59081;42.706;23.306;2023-09-18T20:40:26;7.95;;;5.05;;
43933;SDS011;59081;42.706;23.306;2023-09-18T20:45:27;9.45;;;5.38;;
43933;SDS011;59081;42.706;23.306;2023-09-18T20:55:38;11.60;;;5.13;;
43933;SDS011;59081;42.706;23.306;2023-09-18T21:00:43;8.55;;;4.15;;
43933;SDS011;59081;42.706;23.306;2023-09-18T21:05:44;7.88;;;3.97;;
43933;SDS011;59081;42.706;23.306;2023-09-18T21:10:45;6.55;;;4.10;;
43933;SDS011;59081;42.706;23.306;2023-09-18T21:15:46;6.53;;;4.28;;
43933;SDS011;59081;42.706;23.306;2023-09-18T21:20:51;5.28;;;3.83;;
43933;SDS011;59081;42.706;23.306;2023-09-18T21:25:59;10.52;;;4.32;;
43933;SDS011;59081;42.706;23.306;2023-09-18T21:31:09;5.15;;;3.33;;
43933;SDS011;59081;42.706;23.306;2023-09-18T21:36:13;12.23;;;4.80;;
43933;SDS011;59081;42.706;23.306;2023-09-18T21:41:14;5.75;;;3.65;;
43933;SDS011;59081;42.706;23.306;2023-09-18T21:51:17;4.97;;;3.27;;
43933;SDS011;59081;42.706;23.306;2023-09-18T21:56:18;8.20;;;3.63;;
43933;SDS011;59081;42.706;23.306;2023-09-18T22:01:21;6.47;;;4.00;;
43933;SDS011;59081;42.706;23.306;2023-09-18T22:06:22;7.50;;;3.92;;
43933;SDS011;59081;42.706;23.306;2023-09-18T22:11:23;4.88;;;3.50;;
43933;SDS011;59081;42.706;23.306;2023-09-18T22:16:24;9.90;;;3.72;;
43933;SDS011;59081;42.706;23.306;2023-09-18T22:21:25;7.10;;;3.60;;
43933;SDS011;59081;42.706;23.306;2023-09-18T22:26:26;9.32;;;3.55;;
43933;SDS011;59081;42.706;23.306;2023-09-18T22:31:26;5.78;;;4.50;;
43933;SDS011;59081;42.706;23.306;2023-09-18T22:36:27;5.47;;;2.95;;
43933;SDS011;59081;42.706;23.306;2023-09-18T22:57:46;7.57;;;3.75;;
43933;SDS011;59081;42.706;23.306;2023-09-18T23:02:47;7.35;;;3.40;;
43933;SDS011;59081;42.706;23.306;2023-09-18T23:07:50;5.32;;;4.15;;
43933;SDS011;59081;42.706;23.306;2023-09-18T23:12:53;8.52;;;3.95;;
43933;SDS011;59081;42.706;23.306;2023-09-18T23:17:53;5.53;;;4.25;;
43933;SDS011;59081;42.706;23.306;2023-09-18T23:22:55;12.63;;;4.03;;
43933;SDS011;59081;42.706;23.306;2023-09-18T23:27:55;6.50;;;3.60;;
43933;SDS011;59081;42.706;23.306;2023-09-18T23:38:06;7.20;;;4.07;;
43933;SDS011;59081;42.706;23.306;2023-09-18T23:43:10;5.57;;;3.38;;
43933;SDS011;59081;42.706;23.306;2023-09-18T23:53:21;6.75;;;4.30;;
43933;SDS011;59081;42.706;23.306;2023-09-18T23:58:24;9.55;;;4.10;;
